Time;durP1;ratioP1;P1;durP2;ratioP2;P2;SDS_P1;SDS_P2;PMS_P1;PMS_P2;Temp;Humidity;BMP_temperature;BMP_pressure;BME280_temperature;BME280_humidity;BME280_pressure;Samples;Min_cycle;Max_cycle;Signal;HPM_P1;HPM_P2
2023/09/12 00:01:45;;;;;;;56.63;49.05;;;19.60;99.90;;;;;;7371579;19;20401;-62
2023/09/12 00:04:11;;;;;;;52.05;46.55;;;19.60;99.90;;;;;;7369858;19;20048;-63
2023/09/12 00:06:38;;;;;;;54.13;48.42;;;19.60;99.90;;;;;;7371243;19;20043;-62
2023/09/12 00:09:08;;;;;;;56.50;50.30;;;19.50;99.90;;;;;;7362837;19;20021;-64
2023/09/12 00:11:34;;;;;;;59.40;51.88;;;19.50;99.90;;;;;;7369554;19;20581;-65
2023/09/12 00:14:01;;;;;;;56.80;50.30;;;19.50;99.90;;;;;;7369467;19;20014;-64
2023/09/12 00:16:27;;;;;;;56.10;49.90;;;19.50;99.90;;;;;;7373049;19;20022;-63
2023/09/12 00:18:53;;;;;;;56.58;49.67;;;19.50;99.90;;;;;;7368260;19;20649;-64
2023/09/12 00:21:20;;;;;;;59.13;51.33;;;19.40;99.90;;;;;;7370943;19;20421;-64
2023/09/12 00:23:47;;;;;;;57.28;50.83;;;19.40;99.90;;;;;;7366768;19;20510;-64
2023/09/12 00:26:13;;;;;;;58.30;52.20;;;19.40;99.90;;;;;;7369757;19;20039;-64
2023/09/12 00:28:40;;;;;;;53.65;46.60;;;19.40;99.90;;;;;;7369238;19;20015;-64
2023/09/12 00:31:26;;;;;;;57.63;50.70;;;19.30;99.90;;;;;;7368280;19;20550;-64
2023/09/12 00:33:52;;;;;;;59.53;51.00;;;19.30;99.90;;;;;;7367768;19;20023;-64
2023/09/12 00:36:19;;;;;;;55.25;49.55;;;19.30;99.90;;;;;;7368556;19;20031;-64
2023/09/12 00:38:45;;;;;;;59.75;52.45;;;19.30;99.90;;;;;;7366373;19;20015;-64
2023/09/12 00:41:11;;;;;;;54.63;48.40;;;19.30;99.90;;;;;;7367866;19;20049;-64
2023/09/12 00:43:38;;;;;;;54.35;48.67;;;19.30;99.90;;;;;;7367434;19;20019;-62
2023/09/12 00:46:04;;;;;;;53.65;48.10;;;19.30;99.90;;;;;;7368522;19;20026;-64
2023/09/12 00:48:31;;;;;;;57.50;49.03;;;19.20;99.90;;;;;;7364427;19;20458;-63
2023/09/12 00:50:58;;;;;;;55.47;49.00;;;19.20;99.90;;;;;;7365905;19;20017;-64
2023/09/12 00:53:25;;;;;;;57.95;51.28;;;19.20;99.90;;;;;;7365434;19;20394;-64
2023/09/12 00:55:57;;;;;;;55.78;49.85;;;19.20;99.90;;;;;;7367367;19;20014;-64
2023/09/12 00:58:25;;;;;;;56.88;50.67;;;19.10;99.90;;;;;;7371159;19;20049;-64
2023/09/12 01:00:51;;;;;;;57.15;50.70;;;19.10;99.90;;;;;;7364987;19;21388;-64
2023/09/12 01:03:20;;;;;;;61.33;52.72;;;19.10;99.90;;;;;;7365859;19;20031;-63
2023/09/12 01:05:48;;;;;;;62.30;52.70;;;19.10;99.90;;;;;;7366329;19;20125;-64
2023/09/12 01:08:15;;;;;;;62.40;52.42;;;19.10;99.90;;;;;;7364171;19;20033;-64
2023/09/12 01:10:45;;;;;;;56.63;50.45;;;19.10;99.90;;;;;;7370354;19;20150;-64
2023/09/12 01:13:14;;;;;;;60.63;53.08;;;19.00;99.90;;;;;;7363397;19;20022;-64
2023/09/12 01:15:41;;;;;;;58.10;50.47;;;19.00;99.90;;;;;;7368520;19;20014;-63
2023/09/12 01:18:08;;;;;;;56.42;50.35;;;18.90;99.90;;;;;;7368341;19;20473;-64
2023/09/12 01:20:36;;;;;;;64.22;52.67;;;18.90;99.90;;;;;;7364278;19;20504;-64
2023/09/12 01:23:53;;;;;;;61.72;53.13;;;18.90;99.90;;;;;;7372025;19;20022;-64
2023/09/12 01:26:40;;;;;;;65.55;52.03;;;18.80;99.90;;;;;;7373546;19;20509;-65
2023/09/12 01:29:07;;;;;;;59.45;51.85;;;18.70;99.90;;;;;;7369831;19;20018;-63
2023/09/12 01:31:36;;;;;;;67.72;55.95;;;18.70;99.90;;;;;;7374481;19;20019;-64
2023/09/12 01:34:12;;;;;;;63.50;53.03;;;18.70;99.90;;;;;;7373680;19;20025;-64
2023/09/12 01:36:39;;;;;;;60.85;51.42;;;18.70;99.90;;;;;;7373080;19;20469;-64
2023/09/12 01:39:25;;;;;;;66.60;54.60;;;18.70;99.90;;;;;;7373176;19;20018;-64
2023/09/12 01:41:53;;;;;;;62.22;53.17;;;18.70;99.90;;;;;;7374227;19;20453;-64
2023/09/12 01:44:24;;;;;;;58.58;51.78;;;18.70;99.90;;;;;;7374463;19;20735;-64
2023/09/12 01:46:53;;;;;;;59.42;51.38;;;18.60;99.90;;;;;;7375739;19;20025;-64
2023/09/12 01:49:22;;;;;;;54.53;45.42;;;18.60;99.90;;;;;;7366348;19;20054;-64
2023/09/12 01:51:49;;;;;;;51.45;46.15;;;18.40;99.90;;;;;;7372569;19;20105;-65
2023/09/12 01:54:37;;;;;;;48.42;42.78;;;18.40;99.90;;;;;;7370104;19;20022;-64
2023/09/12 01:57:04;;;;;;;50.80;45.42;;;18.30;99.90;;;;;;7367640;19;20046;-63
2023/09/12 01:59:30;;;;;;;64.90;49.15;;;18.30;99.90;;;;;;7369503;19;20011;-64
2023/09/12 02:01:56;;;;;;;65.97;48.70;;;18.20;99.90;;;;;;7373739;19;20018;-64
2023/09/12 02:04:23;;;;;;;235.02;53.83;;;18.10;99.90;;;;;;7375118;19;20102;-64
2023/09/12 02:06:49;;;;;;;164.57;50.67;;;18.10;99.90;;;;;;7372515;19;20696;-63
2023/09/12 02:09:16;;;;;;;359.00;59.83;;;18.10;99.90;;;;;;7368255;19;20416;-64
2023/09/12 02:11:42;;;;;;;79.25;49.08;;;18.00;99.90;;;;;;7375045;19;20018;-63
2023/09/12 02:14:10;;;;;;;171.00;62.15;;;18.00;99.90;;;;;;7372136;19;20018;-63
2023/09/12 02:16:39;;;;;;;66.88;51.75;;;18.10;99.90;;;;;;7374256;19;20018;-63
2023/09/12 02:19:06;;;;;;;79.60;54.05;;;18.10;99.90;;;;;;7371460;19;20022;-63
2023/09/12 02:21:32;;;;;;;66.03;51.55;;;18.10;99.90;;;;;;7372120;19;20058;-64
2023/09/12 02:23:59;;;;;;;61.20;52.90;;;18.10;99.90;;;;;;7369337;19;20909;-64
2023/09/12 02:26:26;;;;;;;64.05;53.20;;;18.10;99.90;;;;;;7372696;19;20051;-63
2023/09/12 02:28:52;;;;;;;74.63;54.13;;;18.20;99.90;;;;;;7372842;19;20039;-64
2023/09/12 02:31:18;;;;;;;88.43;58.75;;;18.20;99.90;;;;;;7367558;19;20120;-63
2023/09/12 02:33:45;;;;;;;78.63;54.90;;;18.20;99.90;;;;;;7371926;19;20448;-64
2023/09/12 02:36:11;;;;;;;97.65;53.53;;;18.30;99.90;;;;;;7368108;19;20119;-63
2023/09/12 02:38:37;;;;;;;156.13;63.03;;;18.30;99.90;;;;;;7374361;19;20039;-64
2023/09/12 02:41:24;;;;;;;111.43;58.40;;;18.30;99.90;;;;;;7370096;19;20026;-63
2023/09/12 02:43:50;;;;;;;107.72;57.17;;;18.30;99.90;;;;;;7370347;19;20057;-64
2023/09/12 02:46:16;;;;;;;168.90;62.15;;;18.40;99.90;;;;;;7370908;19;20035;-63
2023/09/12 02:48:42;;;;;;;341.48;74.22;;;18.40;99.90;;;;;;7370952;19;20489;-64
2023/09/12 02:51:08;;;;;;;159.98;57.55;;;18.40;99.90;;;;;;7366785;19;20063;-64
2023/09/12 02:53:35;;;;;;;306.80;66.65;;;18.40;99.90;;;;;;7371772;19;20680;-65
2023/09/12 02:56:01;;;;;;;227.00;62.80;;;18.30;99.90;;;;;;7363273;19;20463;-63
2023/09/12 02:58:29;;;;;;;349.55;67.68;;;18.40;99.90;;;;;;7368582;19;20503;-63
2023/09/12 03:00:58;;;;;;;267.33;63.53;;;18.40;99.90;;;;;;7367489;19;20022;-63
2023/09/12 03:03:25;;;;;;;195.52;57.30;;;18.40;99.90;;;;;;7367142;19;20572;-63
2023/09/12 03:06:05;;;;;;;170.00;56.83;;;18.40;99.90;;;;;;7371428;19;20042;-60
2023/09/12 03:08:31;;;;;;;241.95;61.58;;;18.40;99.90;;;;;;7367981;19;20026;-61
2023/09/12 03:10:58;;;;;;;405.48;71.88;;;18.30;99.90;;;;;;7371652;19;20584;-64
2023/09/12 03:13:28;;;;;;;299.65;63.30;;;18.30;99.90;;;;;;7366280;19;20405;-64
2023/09/12 03:15:54;;;;;;;307.02;63.85;;;18.30;99.90;;;;;;7368121;19;20025;-64
2023/09/12 03:18:20;;;;;;;361.90;68.75;;;18.30;99.90;;;;;;7369063;19;20030;-64
2023/09/12 03:20:47;;;;;;;247.15;60.97;;;18.20;99.90;;;;;;7368792;19;20019;-64
2023/09/12 03:23:33;;;;;;;442.77;79.28;;;18.30;99.90;;;;;;7366775;19;20023;-64
2023/09/12 03:26:04;;;;;;;229.85;58.35;;;18.30;99.90;;;;;;7370807;19;20592;-64
2023/09/12 03:28:52;;;;;;;270.23;61.47;;;18.30;99.90;;;;;;7368147;19;20018;-61
2023/09/12 03:31:38;;;;;;;156.30;54.70;;;18.30;99.90;;;;;;7369381;19;20377;-63
2023/09/12 03:34:05;;;;;;;476.67;81.13;;;18.20;99.90;;;;;;7368901;19;20022;-62
2023/09/12 03:36:31;;;;;;;182.88;53.40;;;18.20;99.90;;;;;;7365923;19;20043;-64
2023/09/12 03:38:58;;;;;;;377.40;71.32;;;18.20;99.90;;;;;;7372226;19;20018;-64
2023/09/12 03:41:25;;;;;;;355.35;76.13;;;18.10;99.90;;;;;;7365163;19;20512;-64
2023/09/12 03:44:12;;;;;;;269.65;67.05;;;18.10;99.90;;;;;;7364625;19;20027;-64
2023/09/12 03:46:38;;;;;;;214.32;60.08;;;18.10;99.90;;;;;;7367875;19;20675;-64
2023/09/12 03:49:05;;;;;;;232.27;60.47;;;18.10;99.90;;;;;;7366182;19;20860;-64
2023/09/12 03:51:33;;;;;;;152.65;49.55;;;18.10;99.90;;;;;;7370710;19;20025;-64
2023/09/12 03:53:59;;;;;;;96.78;48.88;;;18.10;99.90;;;;;;7371513;19;20042;-64
2023/09/12 03:56:26;;;;;;;158.18;54.45;;;18.10;99.90;;;;;;7367655;19;20022;-64
2023/09/12 03:58:53;;;;;;;256.33;65.80;;;18.10;99.90;;;;;;7368647;19;20047;-64
2023/09/12 04:01:20;;;;;;;105.78;53.90;;;18.10;99.90;;;;;;7366353;19;20547;-64
2023/09/12 04:03:47;;;;;;;135.40;55.92;;;18.20;99.90;;;;;;7369482;19;20590;-64
2023/09/12 04:06:14;;;;;;;175.45;62.83;;;18.20;99.90;;;;;;7367636;19;20544;-63
2023/09/12 04:08:40;;;;;;;248.82;71.75;;;18.20;99.90;;;;;;7366907;19;20477;-63
2023/09/12 04:11:10;;;;;;;292.65;67.40;;;18.20;99.90;;;;;;7367436;19;20107;-63
2023/09/12 04:13:36;;;;;;;288.17;71.60;;;18.20;99.90;;;;;;7365431;19;20022;-64
2023/09/12 04:16:03;;;;;;;252.80;71.15;;;18.10;99.90;;;;;;7369575;19;20031;-64
2023/09/12 04:18:32;;;;;;;318.88;76.88;;;18.10;99.90;;;;;;7367542;19;20198;-63
2023/09/12 04:20:59;;;;;;;191.57;58.92;;;18.20;99.90;;;;;;7366359;19;20029;-64
2023/09/12 04:23:26;;;;;;;211.68;68.78;;;18.10;99.90;;;;;;7366570;19;20025;-64
2023/09/12 04:25:53;;;;;;;114.60;56.85;;;18.10;99.90;;;;;;7366574;19;20048;-63
2023/09/12 04:28:19;;;;;;;274.15;69.53;;;18.20;99.90;;;;;;7366896;19;20029;-64
2023/09/12 04:30:46;;;;;;;254.65;66.03;;;18.10;99.90;;;;;;7367969;19;21111;-64
2023/09/12 04:33:13;;;;;;;427.80;81.82;;;18.20;99.90;;;;;;7367588;19;20019;-64
2023/09/12 04:35:39;;;;;;;219.25;67.95;;;18.10;99.90;;;;;;7366905;19;20022;-64
2023/09/12 04:38:06;;;;;;;391.75;79.10;;;18.10;99.90;;;;;;7370967;19;20022;-64
2023/09/12 04:41:05;;;;;;;134.32;57.78;;;18.10;99.90;;;;;;7365496;19;20018;-64
2023/09/12 04:43:32;;;;;;;177.63;60.00;;;18.10;99.90;;;;;;7369026;19;20722;-64
2023/09/12 04:46:02;;;;;;;325.33;73.97;;;18.10;99.90;;;;;;7367085;19;20060;-63
2023/09/12 04:48:32;;;;;;;298.52;63.65;;;18.00;99.90;;;;;;7369025;19;20019;-64
2023/09/12 04:50:58;;;;;;;233.00;54.78;;;18.00;99.90;;;;;;7368243;19;20489;-64
2023/09/12 04:53:26;;;;;;;203.95;60.53;;;18.00;99.90;;;;;;7371975;19;20057;-64
2023/09/12 04:55:53;;;;;;;232.00;63.80;;;17.90;99.90;;;;;;7372354;19;20488;-64
2023/09/12 04:58:20;;;;;;;223.27;57.30;;;18.00;99.90;;;;;;7370493;19;20022;-64
2023/09/12 05:00:47;;;;;;;280.35;61.25;;;18.00;99.90;;;;;;7370405;19;20021;-64
2023/09/12 05:03:13;;;;;;;225.55;60.63;;;18.00;99.90;;;;;;7371971;19;20491;-64
2023/09/12 05:05:40;;;;;;;284.77;64.75;;;18.00;99.90;;;;;;7368923;19;20313;-63
2023/09/12 05:08:06;;;;;;;210.55;59.30;;;18.00;99.90;;;;;;7371964;19;20085;-63
2023/09/12 05:10:52;;;;;;;230.02;61.97;;;18.00;99.90;;;;;;7375217;19;20029;-63
2023/09/12 05:13:20;;;;;;;251.73;62.33;;;18.00;99.90;;;;;;7374296;19;20021;-64
2023/09/12 05:16:06;;;;;;;218.27;59.47;;;17.90;99.90;;;;;;7371465;19;20476;-64
2023/09/12 05:18:53;;;;;;;147.73;57.78;;;17.90;99.90;;;;;;7373289;19;20042;-65
2023/09/12 05:21:19;;;;;;;377.15;76.85;;;17.90;99.90;;;;;;7372481;19;20026;-64
2023/09/12 05:23:45;;;;;;;169.45;59.53;;;17.90;99.90;;;;;;7375902;19;20098;-64
2023/09/12 05:26:31;;;;;;;190.00;65.60;;;17.90;99.90;;;;;;7370790;19;20042;-64
2023/09/12 05:28:58;;;;;;;97.43;56.85;;;17.90;99.90;;;;;;7372100;19;20022;-64
2023/09/12 05:31:25;;;;;;;139.68;59.60;;;17.90;99.90;;;;;;7371153;19;20668;-63
2023/09/12 05:33:51;;;;;;;246.88;71.57;;;18.00;99.90;;;;;;7370515;19;20022;-64
2023/09/12 05:36:18;;;;;;;130.85;64.05;;;18.00;99.90;;;;;;7372520;19;20022;-64
2023/09/12 05:38:44;;;;;;;175.50;69.28;;;18.00;99.90;;;;;;7373455;19;20046;-64
2023/09/12 05:41:10;;;;;;;179.60;70.63;;;18.00;99.90;;;;;;7369885;19;20094;-64
2023/09/12 05:43:37;;;;;;;125.70;63.80;;;18.10;99.90;;;;;;7371773;19;20094;-65
2023/09/12 05:46:23;;;;;;;195.80;69.90;;;18.10;99.90;;;;;;7372270;19;20019;-63
2023/09/12 05:48:50;;;;;;;156.10;67.10;;;18.10;99.90;;;;;;7373673;19;20026;-67
2023/09/12 05:51:16;;;;;;;146.77;67.47;;;18.20;99.90;;;;;;7372079;19;20026;-64
2023/09/12 05:53:44;;;;;;;141.45;63.92;;;18.20;99.90;;;;;;7375153;19;20013;-63
2023/09/12 05:56:10;;;;;;;125.28;63.17;;;18.20;99.90;;;;;;7371916;19;20131;-64
2023/09/12 05:58:42;;;;;;;192.15;72.45;;;18.20;99.90;;;;;;7370919;19;20031;-63
2023/09/12 06:01:09;;;;;;;145.13;70.05;;;18.20;99.90;;;;;;7369267;19;20643;-64
2023/09/12 06:03:35;;;;;;;92.65;59.45;;;18.20;99.90;;;;;;7369428;19;20584;-60
2023/09/12 06:06:02;;;;;;;109.78;63.78;;;18.30;99.90;;;;;;7364128;19;20019;-65
2023/09/12 06:08:48;;;;;;;103.45;72.95;;;18.40;99.90;;;;;;7371128;19;20015;-63
2023/09/12 06:11:14;;;;;;;124.90;76.88;;;18.40;99.90;;;;;;7369015;19;20564;-66
2023/09/12 06:13:41;;;;;;;139.48;116.55;;;18.50;99.90;;;;;;7368920;19;20605;-65
2023/09/12 06:16:08;;;;;;;84.55;68.78;;;18.60;99.90;;;;;;7372097;19;20362;-65
2023/09/12 06:18:34;;;;;;;95.00;60.97;;;18.70;99.90;;;;;;7368521;19;20881;-66
2023/09/12 06:21:04;;;;;;;74.88;54.97;;;18.80;99.90;;;;;;7369860;19;20018;-66
2023/09/12 06:23:31;;;;;;;84.07;59.42;;;18.80;99.90;;;;;;7370239;19;20018;-65
2023/09/12 06:25:57;;;;;;;82.03;63.65;;;18.80;99.90;;;;;;7369006;19;20023;-66
2023/09/12 06:28:28;;;;;;;89.57;60.70;;;18.80;99.90;;;;;;7372696;19;20018;-66
2023/09/12 06:30:58;;;;;;;85.50;58.42;;;18.90;99.90;;;;;;7370872;19;20053;-67
2023/09/12 06:33:28;;;;;;;91.03;57.42;;;19.00;99.90;;;;;;7373109;19;20397;-67
2023/09/12 06:35:55;;;;;;;123.13;66.97;;;18.90;99.90;;;;;;7368352;19;20035;-64
2023/09/12 06:38:23;;;;;;;103.10;63.28;;;19.00;99.90;;;;;;7370865;19;20115;-66
2023/09/12 06:40:49;;;;;;;89.18;62.22;;;19.10;99.90;;;;;;7367764;19;20017;-66
2023/09/12 06:43:15;;;;;;;86.00;58.80;;;19.20;99.90;;;;;;7368079;19;20017;-67
2023/09/12 06:45:41;;;;;;;89.30;58.08;;;19.30;99.90;;;;;;7373586;19;20394;-65
2023/09/12 06:48:08;;;;;;;82.85;57.88;;;19.40;99.90;;;;;;7362864;19;20052;-62
2023/09/12 06:50:34;;;;;;;82.47;59.22;;;19.50;99.90;;;;;;7368837;19;20049;-64
2023/09/12 06:53:01;;;;;;;77.65;58.90;;;19.60;99.90;;;;;;7372743;19;20508;-62
2023/09/12 06:55:47;;;;;;;66.00;54.35;;;19.60;99.90;;;;;;7372678;19;20409;-66
2023/09/12 06:58:13;;;;;;;78.72;56.15;;;19.80;99.90;;;;;;7367071;19;21469;-66
2023/09/12 07:00:39;;;;;;;72.85;53.33;;;19.80;99.90;;;;;;7372039;19;20018;-64
2023/09/12 07:03:06;;;;;;;93.93;73.40;;;20.00;99.90;;;;;;7365031;19;20019;-68
2023/09/12 07:05:32;;;;;;;122.22;104.43;;;20.00;99.90;;;;;;7372524;19;20022;-67
2023/09/12 07:07:58;;;;;;;73.85;57.88;;;20.00;99.90;;;;;;7370010;19;20039;-66
2023/09/12 07:10:25;;;;;;;67.40;54.63;;;20.00;99.90;;;;;;7368254;19;20066;-63
2023/09/12 07:12:53;;;;;;;65.75;53.42;;;20.00;99.90;;;;;;7367559;19;20018;-67
2023/09/12 07:15:20;;;;;;;59.47;50.75;;;20.00;99.90;;;;;;7362831;19;20379;-67
2023/09/12 07:17:47;;;;;;;66.60;52.80;;;19.90;99.90;;;;;;7365510;19;20018;-66
2023/09/12 07:20:13;;;;;;;67.18;57.08;;;20.00;99.90;;;;;;7365809;19;20022;-66
2023/09/12 07:22:40;;;;;;;57.25;49.13;;;20.20;99.90;;;;;;7370687;19;20106;-64
2023/09/12 07:25:07;;;;;;;64.13;54.55;;;20.20;99.90;;;;;;7366959;19;20021;-66
2023/09/12 07:27:33;;;;;;;66.03;56.03;;;20.30;99.90;;;;;;7366909;19;20490;-65
2023/09/12 07:30:00;;;;;;;59.25;48.70;;;20.50;99.90;;;;;;7366422;19;20015;-66
2023/09/12 07:32:27;;;;;;;57.28;49.13;;;20.60;99.90;;;;;;7367815;19;20022;-66
2023/09/12 07:34:53;;;;;;;55.20;48.28;;;20.60;99.90;;;;;;7369775;19;20539;-66
2023/09/12 07:37:40;;;;;;;56.28;50.13;;;20.50;99.90;;;;;;7364143;19;20476;-66
2023/09/12 07:40:09;;;;;;;55.70;46.53;;;20.40;99.90;;;;;;7366311;19;20026;-65
2023/09/12 07:42:36;;;;;;;54.33;45.72;;;20.50;99.90;;;;;;7365211;19;20109;-67
2023/09/12 07:45:06;;;;;;;49.85;43.70;;;20.40;99.90;;;;;;7369202;19;20444;-65
2023/09/12 07:47:33;;;;;;;54.42;43.75;;;20.60;99.90;;;;;;7365024;19;20370;-65
2023/09/12 07:50:19;;;;;;;51.78;44.95;;;20.80;99.90;;;;;;7364047;19;20116;-66
2023/09/12 07:52:45;;;;;;;48.85;43.67;;;21.00;99.90;;;;;;7366980;19;20025;-65
2023/09/12 07:55:12;;;;;;;48.00;42.88;;;20.90;99.90;;;;;;7371131;19;20117;-65
2023/09/12 07:57:38;;;;;;;53.33;45.80;;;20.90;99.90;;;;;;7367366;19;20022;-66
2023/09/12 08:00:09;;;;;;;54.28;46.05;;;21.00;99.90;;;;;;7366498;19;20018;-66
2023/09/12 08:02:38;;;;;;;62.70;55.88;;;21.00;99.90;;;;;;7368712;19;20038;-62
2023/09/12 08:05:05;;;;;;;121.63;109.35;;;21.00;99.90;;;;;;7366680;19;20029;-66
2023/09/12 08:07:31;;;;;;;56.47;50.50;;;20.90;99.90;;;;;;7368008;19;20026;-66
2023/09/12 08:09:58;;;;;;;79.53;71.05;;;20.80;99.90;;;;;;7363553;19;20109;-66
2023/09/12 08:12:48;;;;;;;57.20;50.80;;;20.70;99.90;;;;;;7368633;19;20138;-66
2023/09/12 08:15:14;;;;;;;53.35;45.42;;;20.50;99.90;;;;;;7364467;19;20022;-66
2023/09/12 08:17:41;;;;;;;52.50;45.38;;;20.40;99.90;;;;;;7368247;19;20022;-66
2023/09/12 08:20:12;;;;;;;56.85;50.58;;;20.40;99.90;;;;;;7367003;19;20026;-65
2023/09/12 08:22:39;;;;;;;54.30;47.22;;;20.40;99.90;;;;;;7368158;19;20022;-66
2023/09/12 08:25:07;;;;;;;57.13;47.95;;;20.40;99.90;;;;;;7363152;19;20023;-61
2023/09/12 08:27:33;;;;;;;58.00;46.28;;;20.40;99.90;;;;;;7364539;19;20022;-62
2023/09/12 08:30:00;;;;;;;57.83;45.75;;;20.40;99.90;;;;;;7365077;19;20014;-63
2023/09/12 08:32:46;;;;;;;52.33;43.25;;;20.40;99.90;;;;;;7366783;19;20017;-60
2023/09/12 08:35:16;;;;;;;54.35;46.33;;;20.60;99.90;;;;;;7368238;19;20018;-61
2023/09/12 08:37:42;;;;;;;75.93;68.07;;;20.70;99.90;;;;;;7366664;19;20490;-63
2023/09/12 08:40:10;;;;;;;98.05;88.43;;;20.80;99.90;;;;;;7365356;19;20920;-63
2023/09/12 08:42:42;;;;;;;53.15;47.80;;;20.80;99.90;;;;;;7367925;19;20620;-62
2023/09/12 08:45:11;;;;;;;;;;;20.70;99.90;;;;;;7366871;19;20104;-63
2023/09/12 08:47:41;;;;;;;44.05;39.42;;;20.70;99.90;;;;;;7367643;19;19947;-62
2023/09/12 08:50:17;;;;;;;45.55;40.70;;;20.60;99.90;;;;;;7363994;19;20018;-63
2023/09/12 08:52:44;;;;;;;41.83;37.45;;;20.70;99.90;;;;;;7366104;19;20026;-62
2023/09/12 08:55:11;;;;;;;41.63;37.33;;;20.70;99.90;;;;;;7359086;19;20015;-60
2023/09/12 08:57:43;;;;;;;64.88;57.70;;;20.70;99.90;;;;;;7366069;19;20152;-61
2023/09/12 09:00:13;;;;;;;42.72;38.40;;;20.80;99.90;;;;;;7363629;19;20097;-61
2023/09/12 09:02:40;;;;;;;43.65;39.38;;;20.80;99.90;;;;;;7364410;19;20375;-61
2023/09/12 09:05:11;;;;;;;47.10;40.25;;;20.90;99.90;;;;;;7364075;19;20019;-61
2023/09/12 09:07:39;;;;;;;44.55;39.92;;;20.90;99.90;;;;;;7366853;19;20082;-61
2023/09/12 09:10:15;;;;;;;43.65;38.95;;;20.70;99.90;;;;;;7365751;19;20312;-60
2023/09/12 09:12:44;;;;;;;42.83;38.45;;;20.60;99.90;;;;;;7369309;19;20050;-60
2023/09/12 09:15:28;;;;;;;46.70;41.65;;;20.70;99.90;;;;;;7364581;19;20470;-61
2023/09/12 09:18:15;;;;;;;43.75;38.97;;;20.80;99.90;;;;;;7365987;19;20106;-61
2023/09/12 09:20:42;;;;;;;42.60;38.17;;;20.80;99.90;;;;;;7367563;19;20026;-60
2023/09/12 09:23:10;;;;;;;45.15;40.25;;;20.90;99.90;;;;;;7369471;19;20686;-61
2023/09/12 09:25:40;;;;;;;45.53;40.70;;;20.90;99.90;;;;;;7367790;19;20490;-60
2023/09/12 09:28:20;;;;;;;42.42;38.22;;;21.10;99.90;;;;;;7364089;19;20644;-61
2023/09/12 09:30:49;;;;;;;42.78;37.63;;;21.50;99.90;;;;;;7368655;19;20018;-61
2023/09/12 09:33:15;;;;;;;38.97;35.05;;;22.00;99.90;;;;;;7367826;19;20034;-61
2023/09/12 09:35:42;;;;;;;41.13;36.83;;;22.20;99.90;;;;;;7370094;19;20457;-61
2023/09/12 09:38:09;;;;;;;40.22;36.30;;;22.40;99.90;;;;;;7370208;19;20853;-60
2023/09/12 09:40:36;;;;;;;37.35;33.50;;;22.30;99.90;;;;;;7369649;19;20354;-60
2023/09/12 09:43:03;;;;;;;39.35;34.95;;;22.50;99.90;;;;;;7374405;19;20355;-61
2023/09/12 09:45:32;;;;;;;40.88;36.67;;;22.60;99.90;;;;;;7376210;19;20021;-61
2023/09/12 09:48:06;;;;;;;41.00;36.72;;;22.80;99.90;;;;;;7377854;19;21385;-61
2023/09/12 09:50:39;;;;;;;40.17;35.80;;;23.00;99.90;;;;;;7376493;19;20022;-60
2023/09/12 09:53:08;;;;;;;39.15;35.28;;;23.20;99.90;;;;;;7374080;19;20478;-60
2023/09/12 09:55:34;;;;;;;41.83;37.42;;;23.50;99.90;;;;;;7377341;19;20011;-60
2023/09/12 09:58:23;;;;;;;40.15;36.25;;;24.00;99.90;;;;;;7374208;19;20022;-61
2023/09/12 10:00:51;;;;;;;39.75;35.85;;;24.00;99.90;;;;;;7373511;19;20081;-61
2023/09/12 10:03:20;;;;;;;37.53;33.83;;;24.00;99.90;;;;;;7377865;19;20026;-61
2023/09/12 10:05:48;;;;;;;38.58;34.80;;;24.60;99.90;;;;;;7373996;19;20018;-61
2023/09/12 10:08:17;;;;;;;35.92;32.30;;;24.90;99.90;;;;;;7371802;19;20576;-61
2023/09/12 10:10:43;;;;;;;37.97;34.08;;;24.90;99.90;;;;;;7374666;19;20508;-61
2023/09/12 10:13:10;;;;;;;36.58;32.88;;;25.20;99.90;;;;;;7375109;19;20481;-61
2023/09/12 10:15:38;;;;;;;36.72;33.03;;;25.30;99.90;;;;;;7377039;19;20898;-61
2023/09/12 10:18:16;;;;;;;35.03;31.60;;;24.80;99.90;;;;;;7373073;19;20576;-61
2023/09/12 10:20:51;;;;;;;35.28;31.67;;;24.60;99.90;;;;;;7373885;19;20082;-61
2023/09/12 10:23:44;;;;;;;36.00;32.40;;;24.60;99.90;;;;;;7374341;19;20658;-61
2023/09/12 10:26:13;;;;;;;37.03;33.50;;;25.10;99.90;;;;;;7374378;19;20373;-60
2023/09/12 10:28:42;;;;;;;36.45;32.70;;;25.40;99.90;;;;;;7378067;19;20374;-65
2023/09/12 10:31:11;;;;;;;33.83;30.50;;;26.30;99.90;;;;;;7374409;19;20015;-61
2023/09/12 10:33:38;;;;;;;33.03;29.73;;;27.30;99.90;;;;;;7377585;19;20014;-61
2023/09/12 10:36:26;;;;;;;32.22;29.35;;;28.20;99.90;;;;;;7372522;19;20031;-66
2023/09/12 10:38:53;;;;;;;32.40;29.23;;;28.70;99.90;;;;;;7374506;19;20439;-65
2023/09/12 10:41:22;;;;;;;30.45;27.60;;;28.90;99.90;;;;;;7369081;19;20482;-65
2023/09/12 10:44:16;;;;;;;30.23;27.20;;;28.60;99.90;;;;;;7372524;19;20473;-66
2023/09/12 10:46:45;;;;;;;29.95;27.25;;;28.20;99.90;;;;;;7376730;19;20477;-65
2023/09/12 10:49:13;;;;;;;30.60;27.83;;;27.70;99.90;;;;;;7372988;19;20496;-66
2023/09/12 10:51:44;;;;;;;30.15;27.38;;;27.20;99.90;;;;;;7373616;19;20016;-65
2023/09/12 10:54:15;;;;;;;32.15;29.02;;;27.10;99.90;;;;;;7374604;19;20014;-65
2023/09/12 10:56:41;;;;;;;30.75;27.67;;;27.40;99.90;;;;;;7376252;19;20367;-65
2023/09/12 10:59:12;;;;;;;29.10;26.42;;;27.40;99.90;;;;;;7376557;19;20018;-66
2023/09/12 11:01:46;;;;;;;30.27;27.33;;;28.20;99.90;;;;;;7375332;19;20046;-66
2023/09/12 11:04:19;;;;;;;30.92;27.92;;;28.30;99.90;;;;;;7373889;19;20085;-65
2023/09/12 11:06:48;;;;;;;26.95;24.25;;;28.30;99.90;;;;;;7377695;19;20023;-65
2023/09/12 11:09:36;;;;;;;28.33;25.73;;;28.40;99.90;;;;;;7372628;19;20007;-66
2023/09/12 11:12:04;;;;;;;26.23;23.75;;;29.10;99.90;;;;;;7374486;19;20355;-66
2023/09/12 11:14:34;;;;;;;27.92;25.00;;;29.90;99.90;;;;;;7372895;19;20018;-66
2023/09/12 11:17:10;;;;;;;27.08;24.42;;;30.40;99.90;;;;;;7378867;19;20070;-66
2023/09/12 11:19:51;;;;;;;23.88;21.63;;;30.40;98.40;;;;;;7375209;19;20031;-66
2023/09/12 11:22:30;;;;;;;23.67;21.48;;;29.70;97.40;;;;;;7375112;19;20021;-66
2023/09/12 11:25:05;;;;;;;23.88;21.77;;;29.00;98.20;;;;;;7374353;19;20022;-66
2023/09/12 11:27:43;;;;;;;23.73;21.33;;;28.70;99.90;;;;;;7378580;19;20347;-66
2023/09/12 11:30:10;;;;;;;25.95;23.42;;;28.10;99.90;;;;;;7376118;19;20018;-66
2023/09/12 11:32:37;;;;;;;28.13;25.33;;;27.30;99.90;;;;;;7374873;19;20122;-66
2023/09/12 11:35:08;;;;;;;28.60;25.73;;;27.00;99.90;;;;;;7373292;19;20010;-65
2023/09/12 11:37:55;;;;;;;29.20;26.48;;;27.20;99.90;;;;;;7375071;19;20038;-65
2023/09/12 11:40:26;;;;;;;29.10;26.40;;;27.90;99.90;;;;;;7373048;19;20018;-66
2023/09/12 11:42:52;;;;;;;28.98;26.33;;;28.00;99.90;;;;;;7377537;19;20804;-66
2023/09/12 11:45:21;;;;;;;29.88;26.88;;;28.00;99.90;;;;;;7373789;19;20011;-66
2023/09/12 11:47:48;;;;;;;25.27;22.85;;;27.80;99.90;;;;;;7377413;19;20124;-66
2023/09/12 11:50:38;;;;;;;23.60;21.30;;;28.10;99.90;;;;;;7374073;19;20018;-66
2023/09/12 11:53:06;;;;;;;24.73;22.40;;;28.80;99.90;;;;;;7375903;19;20102;-66
2023/09/12 11:55:36;;;;;;;23.77;21.30;;;29.30;99.90;;;;;;7377633;19;20469;-67
2023/09/12 11:58:03;;;;;;;24.52;22.13;;;29.50;99.90;;;;;;7374682;19;20014;-65
2023/09/12 12:00:30;;;;;;;22.88;20.73;;;30.10;99.90;;;;;;7375282;19;20018;-67
2023/09/12 12:02:56;;;;;;;22.55;20.40;;;30.80;99.90;;;;;;7374222;19;20014;-67
2023/09/12 12:05:22;;;;;;;21.52;19.58;;;31.30;98.00;;;;;;7373983;19;20482;-67
2023/09/12 12:07:49;;;;;;;21.23;19.23;;;31.50;96.10;;;;;;7375201;19;20052;-66
2023/09/12 12:10:17;;;;;;;19.52;17.70;;;31.80;93.90;;;;;;7373124;19;20037;-66
2023/09/12 12:12:46;;;;;;;18.58;16.75;;;32.00;91.70;;;;;;7375848;19;20014;-66
2023/09/12 12:15:13;;;;;;;20.25;18.30;;;32.30;90.60;;;;;;7375355;19;20500;-66
2023/09/12 12:18:00;;;;;;;17.77;16.17;;;32.00;89.00;;;;;;7374364;19;20082;-67
2023/09/12 12:20:29;;;;;;;18.48;16.50;;;31.10;90.20;;;;;;7370599;19;20015;-67
2023/09/12 12:22:56;;;;;;;16.83;15.13;;;30.10;91.10;;;;;;7374501;19;20038;-66
2023/09/12 12:25:22;;;;;;;16.38;14.65;;;29.40;91.50;;;;;;7374518;19;20024;-66
2023/09/12 12:27:49;;;;;;;16.73;14.07;;;29.10;91.90;;;;;;7375889;19;20023;-66
2023/09/12 12:30:17;;;;;;;16.25;14.65;;;28.80;92.60;;;;;;7374967;19;20021;-66
2023/09/12 12:33:08;;;;;;;16.25;14.50;;;28.30;92.40;;;;;;7372301;19;20018;-66
2023/09/12 12:35:36;;;;;;;15.90;14.35;;;28.00;93.90;;;;;;7373582;19;20025;-61
2023/09/12 12:38:03;;;;;;;17.77;15.20;;;27.70;93.90;;;;;;7369963;19;20057;-60